Terminal Aerodrome Forecast
Issued by NWS Dallas/Fort Worth, TX

Home | Current Version | Previous Version | Text Only | Print | Product List | Glossary On
Versions: 1 2 3 4 5 6 7 8 9 10 11 12 13 14 15 16 17 18 19 20 21 22 23 24 25 26 27 28 29 30
000
FTUS44 KFWD 172100 AAC
TAFACT
TAF AMD
KACT 172107Z 1721/1818 11007KT 5SM -RA BR VCTS OVC020CB
     FM172300 11007KT 6SM -RA BR SCT006 OVC015
     FM180300 12007KT 3SM -DZ BR OVC009
     FM180600 13007KT 5SM BR OVC009
     FM181500 13007KT 5SM BR OVC015=

USA.gov is the U.S. government's official web portal to all federal, state and local government web resources and services.